createdAt,value
2024-04-22T00:02:21.950Z,7.60
2024-04-22T00:04:51.533Z,7.60
2024-04-22T00:07:19.969Z,7.61
2024-04-22T00:09:47.963Z,7.61
2024-04-22T00:12:16.473Z,7.59
2024-04-22T00:14:45.099Z,7.55
2024-04-22T00:17:13.576Z,7.51
2024-04-22T00:19:42.249Z,7.48
2024-04-22T00:22:10.753Z,7.47
2024-04-22T00:24:39.287Z,7.44
2024-04-22T00:27:07.653Z,7.42
2024-04-22T00:29:36.136Z,7.46
2024-04-22T00:32:05.153Z,7.48
2024-04-22T00:34:33.494Z,7.47
2024-04-22T00:37:01.692Z,7.51
2024-04-22T00:39:30.173Z,7.54
2024-04-22T00:41:58.518Z,7.56
2024-04-22T00:44:26.625Z,7.58
2024-04-22T00:46:55.767Z,7.57
2024-04-22T00:49:24.610Z,7.55
2024-04-22T00:51:54.297Z,7.56
2024-04-22T00:54:23.266Z,7.56
2024-04-22T00:56:53.021Z,7.55
2024-04-22T00:59:21.909Z,7.58
2024-04-22T01:01:50.374Z,7.63
2024-04-22T01:04:19.110Z,7.67
2024-04-22T01:06:47.514Z,7.70
2024-04-22T01:09:15.836Z,7.73
2024-04-22T01:11:43.932Z,7.76
2024-04-22T01:14:12.226Z,7.79
2024-04-22T01:16:40.240Z,7.81
2024-04-22T01:19:08.653Z,7.84
2024-04-22T01:21:36.807Z,7.87
2024-04-22T01:24:05.369Z,7.89
2024-04-22T01:26:34.354Z,7.92
2024-04-22T01:29:02.603Z,7.93
2024-04-22T01:31:31.547Z,7.92
2024-04-22T01:34:00.073Z,7.90
2024-04-22T01:36:28.407Z,7.87
2024-04-22T01:38:56.624Z,7.90
2024-04-22T01:41:24.953Z,7.89
2024-04-22T01:43:53.228Z,7.89
2024-04-22T01:46:21.282Z,7.89
2024-04-22T01:48:49.742Z,7.91
2024-04-22T01:51:17.864Z,7.95
2024-04-22T01:53:46.197Z,7.99
2024-04-22T01:56:14.262Z,8.02
2024-04-22T01:58:42.537Z,8.04
2024-04-22T02:01:10.754Z,8.05
2024-04-22T02:03:39.285Z,8.07
2024-04-22T02:06:07.930Z,8.09
2024-04-22T02:08:36.284Z,8.09
2024-04-22T02:11:04.636Z,8.10
2024-04-22T02:13:33.078Z,8.08
2024-04-22T02:16:01.356Z,8.03
2024-04-22T02:18:29.705Z,7.99
2024-04-22T02:20:58.034Z,7.96
2024-04-22T02:23:26.840Z,7.94
2024-04-22T02:25:55.117Z,7.96
2024-04-22T02:28:23.526Z,7.98
2024-04-22T02:30:52.020Z,7.99
2024-04-22T02:33:20.401Z,7.99
2024-04-22T02:35:49.364Z,8.00
2024-04-22T02:38:18.453Z,8.02
2024-04-22T02:40:46.751Z,8.02
2024-04-22T02:43:15.200Z,8.03
2024-04-22T02:45:44.130Z,8.02
2024-04-22T02:48:12.372Z,8.01
2024-04-22T02:50:40.749Z,8.01
2024-04-22T02:53:08.783Z,8.01
2024-04-22T02:55:37.062Z,8.00
2024-04-22T02:58:06.257Z,8.00
2024-04-22T03:00:34.748Z,8.00
2024-04-22T03:03:03.266Z,7.98
2024-04-22T03:05:31.875Z,7.98
2024-04-22T03:08:00.563Z,8.01
2024-04-22T03:10:28.962Z,8.03
2024-04-22T03:12:57.371Z,8.05
2024-04-22T03:15:25.526Z,8.05
2024-04-22T03:17:54.444Z,8.06
2024-04-22T03:20:24.546Z,8.09
2024-04-22T03:22:53.085Z,8.12
2024-04-22T03:25:21.654Z,8.12
2024-04-22T03:27:50.157Z,8.17
2024-04-22T03:30:18.379Z,8.24
2024-04-22T03:32:46.910Z,8.30
2024-04-22T03:35:15.478Z,8.38
2024-04-22T03:37:43.991Z,8.46
2024-04-22T03:40:12.589Z,8.48
2024-04-22T03:42:40.894Z,8.50
2024-04-22T03:45:08.963Z,8.53
2024-04-22T03:47:56.201Z,8.55
2024-04-22T03:50:24.328Z,8.56
2024-04-22T03:52:53.571Z,8.60
2024-04-22T03:55:21.860Z,8.64
2024-04-22T03:57:51.255Z,8.66
2024-04-22T04:00:19.939Z,8.67
2024-04-22T04:02:48.252Z,8.67
2024-04-22T04:05:18.275Z,8.63
2024-04-22T04:07:48.261Z,8.61
2024-04-22T04:10:16.930Z,8.64
2024-04-22T04:12:45.251Z,8.70
2024-04-22T04:15:13.840Z,8.70
2024-04-22T04:17:42.580Z,8.70
2024-04-22T04:20:11.401Z,8.76
2024-04-22T04:22:39.499Z,8.81
2024-04-22T04:25:08.076Z,8.91
2024-04-22T04:27:36.309Z,8.99
2024-04-22T04:30:05.452Z,9.04
2024-04-22T04:32:34.550Z,9.10
2024-04-22T04:35:06.695Z,9.16
2024-04-22T04:37:36.521Z,9.17
2024-04-22T04:40:05.141Z,9.15
2024-04-22T04:42:33.312Z,9.20
2024-04-22T04:45:01.832Z,9.19
2024-04-22T04:47:30.024Z,9.15
2024-04-22T04:49:59.240Z,9.12
2024-04-22T04:52:28.210Z,9.10
2024-04-22T04:54:56.909Z,9.15
2024-04-22T04:57:25.045Z,9.19
2024-04-22T04:59:53.630Z,9.15
2024-04-22T05:02:21.586Z,9.08
2024-04-22T05:04:52.222Z,9.00
2024-04-22T05:07:20.709Z,8.91
2024-04-22T05:09:56.736Z,8.86
2024-04-22T05:12:31.842Z,8.79
2024-04-22T05:15:03.716Z,8.75
2024-04-22T05:17:32.276Z,8.72
2024-04-22T05:20:00.676Z,8.71
2024-04-22T05:22:34.282Z,8.73
2024-04-22T05:25:04.521Z,8.79
2024-04-22T05:27:34.422Z,8.92
2024-04-22T05:30:04.302Z,9.05
2024-04-22T05:32:34.753Z,9.09
2024-04-22T05:35:36.616Z,9.08
2024-04-22T05:38:05.130Z,9.17
2024-04-22T05:40:34.052Z,9.18
2024-04-22T05:43:02.175Z,9.17
2024-04-22T05:45:31.340Z,9.12
2024-04-22T05:48:00.818Z,9.10
2024-04-22T05:50:29.589Z,9.14
2024-04-22T05:52:58.506Z,9.14
2024-04-22T05:55:36.832Z,9.04
2024-04-22T05:58:24.982Z,8.95
2024-04-22T06:00:59.688Z,8.90
2024-04-22T06:03:29.301Z,8.92
2024-04-22T06:05:57.654Z,8.97
2024-04-22T06:08:26.308Z,9.02
2024-04-22T06:10:56.190Z,9.06
2024-04-22T06:13:27.252Z,9.09
2024-04-22T06:15:58.715Z,9.10
2024-04-22T06:18:27.669Z,9.10
2024-04-22T06:20:57.526Z,9.10
2024-04-22T06:23:37.791Z,9.11
2024-04-22T06:26:09.822Z,9.07
2024-04-22T06:28:38.802Z,9.04
2024-04-22T06:31:11.344Z,9.04
2024-04-22T06:33:43.996Z,9.02
2024-04-22T06:36:15.318Z,9.02
2024-04-22T06:38:50.390Z,9.03
2024-04-22T06:41:22.779Z,8.99
2024-04-22T06:43:57.831Z,8.92
2024-04-22T06:46:30.157Z,8.86
2024-04-22T06:49:12.557Z,8.86
2024-04-22T06:51:44.692Z,8.84
2024-04-22T06:54:22.193Z,8.80
2024-04-22T06:56:51.167Z,8.78
2024-04-22T06:59:21.110Z,8.79
2024-04-22T07:01:56.944Z,8.82
2024-04-22T07:04:30.751Z,8.86
2024-04-22T07:07:00.090Z,8.88
2024-04-22T07:09:31.219Z,8.86
2024-04-22T07:12:00.498Z,8.83
2024-04-22T07:14:30.688Z,8.74
2024-04-22T07:16:59.455Z,8.71
2024-04-22T07:19:30.182Z,8.65
2024-04-22T07:22:02.906Z,8.60
2024-04-22T07:24:31.914Z,8.52
2024-04-22T07:27:10.983Z,8.46
2024-04-22T07:29:54.095Z,8.42
2024-04-22T07:32:24.585Z,8.48
2024-04-22T07:34:54.205Z,8.55
2024-04-22T07:37:31.858Z,8.58
2024-04-22T07:40:15.705Z,8.60
2024-04-22T07:42:48.048Z,8.62
2024-04-22T07:45:23.596Z,8.65
2024-04-22T07:47:55.522Z,8.65
2024-04-22T07:50:24.700Z,8.65
2024-04-22T07:52:54.419Z,8.64
2024-04-22T07:55:26.817Z,8.64
2024-04-22T07:58:02.014Z,8.66
2024-04-22T08:00:34.951Z,8.66
2024-04-22T08:03:07.681Z,8.66
2024-04-22T08:05:37.342Z,8.66
2024-04-22T08:08:16.317Z,8.66
2024-04-22T08:10:53.881Z,8.64
2024-04-22T08:13:24.822Z,8.59
2024-04-22T08:15:55.264Z,8.60
2024-04-22T08:18:24.180Z,8.65
2024-04-22T08:21:00.440Z,8.65
2024-04-22T08:32:32.419Z,8.58
2024-04-22T08:35:12.381Z,8.61
2024-04-22T08:37:48.565Z,8.66
2024-04-22T08:40:26.564Z,8.72
2024-04-22T08:43:01.893Z,8.78
2024-04-22T08:45:31.636Z,8.82
2024-04-22T08:48:00.631Z,8.83
2024-04-22T08:50:31.632Z,8.83
2024-04-22T08:53:04.636Z,8.81
2024-04-22T08:55:33.649Z,8.80
2024-04-22T08:58:05.327Z,8.84
2024-04-22T09:00:34.649Z,8.95
2024-04-22T09:03:05.589Z,9.14
2024-04-22T09:05:37.448Z,9.32
2024-04-22T09:08:08.458Z,9.48
2024-04-22T09:11:11.832Z,9.58
2024-04-22T09:13:30.194Z,9.60
2024-04-22T09:15:59.621Z,9.64
2024-04-22T09:18:29.654Z,9.62
2024-04-22T09:21:07.636Z,9.65
2024-04-22T09:23:40.362Z,9.66
2024-04-22T09:26:09.610Z,9.68
2024-04-22T09:28:39.616Z,9.74
2024-04-22T09:31:10.126Z,9.72
2024-04-22T09:33:38.754Z,9.75
2024-04-22T09:36:07.609Z,9.83
2024-04-22T09:38:46.137Z,9.92
2024-04-22T09:41:21.039Z,10.00
2024-04-22T09:43:57.093Z,10.09
2024-04-22T09:46:32.664Z,10.15
2024-04-22T09:49:03.523Z,10.16
2024-04-22T09:51:35.713Z,10.13
2024-04-22T09:54:05.114Z,10.04
2024-04-22T09:56:37.122Z,9.93
2024-04-22T09:59:07.961Z,9.87
2024-04-22T10:01:37.032Z,9.83
2024-04-22T10:04:06.165Z,9.80
2024-04-22T10:06:34.732Z,9.86
2024-04-22T10:09:03.458Z,9.92
2024-04-22T10:11:33.774Z,9.96
2024-04-22T10:14:15.182Z,9.97
2024-04-22T10:17:05.730Z,10.02
2024-04-22T10:19:37.882Z,10.03
2024-04-22T10:22:09.606Z,10.10
2024-04-22T10:24:39.960Z,10.36
2024-04-22T10:27:12.724Z,10.95
2024-04-22T10:29:43.783Z,11.48
2024-04-22T10:32:12.184Z,11.99
2024-04-22T10:34:44.826Z,12.59
2024-04-22T10:37:14.558Z,12.76
2024-04-22T10:39:46.728Z,12.72
2024-04-22T10:42:19.208Z,12.88
2024-04-22T10:44:48.318Z,13.22
2024-04-22T10:47:16.945Z,13.33
2024-04-22T10:49:47.739Z,13.22
2024-04-22T10:52:16.223Z,13.03
2024-04-22T10:54:46.183Z,12.71
2024-04-22T10:57:15.437Z,12.54
2024-04-22T10:59:43.910Z,12.55
2024-04-22T11:02:12.502Z,12.52
2024-04-22T11:04:42.246Z,12.45
2024-04-22T11:07:10.786Z,12.57
2024-04-22T11:09:39.577Z,12.78
2024-04-22T11:12:08.388Z,12.80
2024-04-22T11:14:37.064Z,12.73
2024-04-22T11:17:05.652Z,12.61
2024-04-22T11:19:34.003Z,12.42
2024-04-22T11:22:03.296Z,12.30
2024-04-22T11:24:31.862Z,12.17
2024-04-22T11:27:00.358Z,12.08
2024-04-22T11:29:29.416Z,11.99
2024-04-22T11:31:58.998Z,11.94
2024-04-22T11:34:27.668Z,11.88
2024-04-22T11:37:00.409Z,11.77
2024-04-22T11:39:32.036Z,11.63
2024-04-22T11:42:01.368Z,11.56
2024-04-22T11:44:29.729Z,11.43
2024-04-22T11:46:58.851Z,11.38
2024-04-22T11:49:27.246Z,11.36
2024-04-22T11:51:55.566Z,11.33
2024-04-22T11:54:23.924Z,11.25
2024-04-22T11:56:52.974Z,11.22
2024-04-22T11:59:22.072Z,11.22
2024-04-22T12:01:50.879Z,11.26
2024-04-22T12:04:19.291Z,11.23
2024-04-22T12:06:48.393Z,11.23
2024-04-22T12:09:16.697Z,11.26
2024-04-22T12:11:45.549Z,11.32
2024-04-22T12:14:14.694Z,11.28
2024-04-22T12:16:43.345Z,11.27
2024-04-22T12:19:12.406Z,11.24
2024-04-22T12:21:40.872Z,11.22
2024-04-22T12:24:09.485Z,11.20
2024-04-22T12:26:37.819Z,11.11
2024-04-22T12:29:06.747Z,11.05
2024-04-22T12:31:36.199Z,11.05
2024-04-22T12:34:12.269Z,11.05
2024-04-22T12:36:42.502Z,11.02
2024-04-22T12:39:10.619Z,11.00
2024-04-22T12:41:39.866Z,10.99
2024-04-22T12:44:08.139Z,10.97
2024-04-22T12:46:56.801Z,10.96
2024-04-22T12:49:44.338Z,10.94
2024-04-22T12:52:15.038Z,10.93
2024-04-22T12:54:43.915Z,10.91
2024-04-22T12:57:12.475Z,10.89
2024-04-22T12:59:41.370Z,10.87
2024-04-22T13:02:13.810Z,10.84
2024-04-22T13:04:42.439Z,10.81
2024-04-22T13:07:10.880Z,10.78
2024-04-22T13:09:39.462Z,10.75
2024-04-22T13:12:08.215Z,10.72
2024-04-22T13:14:36.297Z,10.69
2024-04-22T13:17:05.073Z,10.66
2024-04-22T13:19:33.611Z,10.64
2024-04-22T13:22:01.613Z,10.63
2024-04-22T13:24:29.582Z,10.63
2024-04-22T13:26:57.573Z,10.61
2024-04-22T13:29:26.021Z,10.57
2024-04-22T13:31:55.402Z,10.55
2024-04-22T13:34:23.642Z,10.50
2024-04-22T13:36:52.193Z,10.50
2024-04-22T13:39:20.828Z,10.49
2024-04-22T13:41:49.630Z,10.47
2024-04-22T13:44:19.372Z,10.46
2024-04-22T13:46:48.021Z,10.44
2024-04-22T13:49:16.631Z,10.44
2024-04-22T13:51:46.435Z,10.42
2024-04-22T13:54:14.718Z,10.42
2024-04-22T13:56:42.899Z,10.39
2024-04-22T13:59:11.516Z,10.37
2024-04-22T14:01:40.318Z,10.36
2024-04-22T14:04:09.008Z,10.35
2024-04-22T14:06:37.848Z,10.35
2024-04-22T14:09:07.548Z,10.39
2024-04-22T14:11:37.566Z,10.41
2024-04-22T14:14:06.110Z,10.37
2024-04-22T14:16:34.632Z,10.40
2024-04-22T14:19:03.080Z,10.44
2024-04-22T14:21:31.199Z,10.45
2024-04-22T14:23:59.833Z,10.48
2024-04-22T14:26:28.018Z,10.49
2024-04-22T14:28:56.331Z,10.44
2024-04-22T14:31:24.531Z,10.42
2024-04-22T14:33:54.286Z,10.41
2024-04-22T14:36:24.634Z,10.44
2024-04-22T14:38:53.197Z,10.49
2024-04-22T14:41:21.781Z,10.53
2024-04-22T14:43:50.534Z,10.60
2024-04-22T14:46:20.924Z,10.70
2024-04-22T14:48:49.149Z,10.78
2024-04-22T14:51:17.800Z,10.85
2024-04-22T14:53:46.465Z,10.91
2024-04-22T14:56:14.681Z,10.93
2024-04-22T14:58:43.068Z,10.93
2024-04-22T15:01:11.526Z,10.95
2024-04-22T15:03:40.114Z,11.01
2024-04-22T15:06:08.643Z,10.98
2024-04-22T15:08:37.242Z,10.99
2024-04-22T15:11:07.858Z,11.00
2024-04-22T15:13:36.568Z,10.97
2024-04-22T15:16:05.256Z,10.94
2024-04-22T15:18:34.475Z,10.94
2024-04-22T15:21:02.886Z,10.97
2024-04-22T15:23:31.076Z,10.95
2024-04-22T15:25:59.369Z,10.94
2024-04-22T15:28:27.776Z,10.96
2024-04-22T15:30:56.045Z,10.94
2024-04-22T15:33:24.121Z,10.90
2024-04-22T15:35:52.370Z,10.89
2024-04-22T15:38:20.335Z,10.89
2024-04-22T15:40:49.128Z,10.88
2024-04-22T15:43:17.616Z,10.82
2024-04-22T15:45:45.660Z,10.74
2024-04-22T15:48:21.206Z,10.69
2024-04-22T15:50:53.640Z,10.66
2024-04-22T15:53:21.896Z,10.63
2024-04-22T15:55:58.620Z,10.62
2024-04-22T15:58:27.437Z,10.62
2024-04-22T16:00:55.938Z,10.62
2024-04-22T16:03:24.118Z,10.59
2024-04-22T16:05:52.774Z,10.53
2024-04-22T16:08:20.872Z,10.48
2024-04-22T16:10:49.566Z,10.45
2024-04-22T16:13:18.162Z,10.43
2024-04-22T16:15:47.238Z,10.43
2024-04-22T16:18:15.677Z,10.41
2024-04-22T16:20:49.733Z,10.39
2024-04-22T16:23:21.843Z,10.36
2024-04-22T16:25:50.140Z,10.31
2024-04-22T16:28:18.576Z,10.27
2024-04-22T16:30:47.301Z,10.20
2024-04-22T16:33:15.924Z,10.19
2024-04-22T16:35:44.216Z,10.20
2024-04-22T16:38:12.330Z,10.21
2024-04-22T16:40:40.859Z,10.23
2024-04-22T16:43:09.242Z,10.23
2024-04-22T16:45:37.582Z,10.24
2024-04-22T16:48:06.592Z,10.22
2024-04-22T16:50:36.278Z,10.17
2024-04-22T16:53:05.229Z,10.14
2024-04-22T16:55:33.750Z,10.11
2024-04-22T16:58:02.185Z,10.07
2024-04-22T17:00:31.244Z,10.02
2024-04-22T17:02:59.484Z,9.97
2024-04-22T17:05:28.018Z,9.91
2024-04-22T17:07:56.371Z,9.87
2024-04-22T17:10:25.515Z,9.81
2024-04-22T17:12:56.591Z,9.76
2024-04-22T17:15:25.540Z,9.70
2024-04-22T17:17:54.207Z,9.67
2024-04-22T17:20:22.553Z,9.60
2024-04-22T17:22:52.549Z,9.52
2024-04-22T17:25:20.838Z,9.44
2024-04-22T17:27:49.399Z,9.42
2024-04-22T17:30:17.528Z,9.43
2024-04-22T17:32:46.045Z,9.43
2024-04-22T17:35:14.730Z,9.43
2024-04-22T17:37:43.402Z,9.45
2024-04-22T17:40:12.067Z,9.49
2024-04-22T17:42:40.568Z,9.51
2024-04-22T17:45:09.887Z,9.53
2024-04-22T17:47:38.626Z,9.51
2024-04-22T17:50:06.983Z,9.47
2024-04-22T17:52:35.665Z,9.44
2024-04-22T17:55:04.437Z,9.40
2024-04-22T17:57:32.546Z,9.37
2024-04-22T18:00:00.809Z,9.37
2024-04-22T18:02:29.370Z,9.34
2024-04-22T18:04:57.613Z,9.30
2024-04-22T18:07:26.924Z,9.26
2024-04-22T18:09:55.361Z,9.19
2024-04-22T18:12:24.082Z,9.17
2024-04-22T18:14:52.437Z,9.17
2024-04-22T18:17:20.546Z,9.16
2024-04-22T18:19:48.799Z,9.20
2024-04-22T18:22:21.005Z,9.19
2024-04-22T18:24:50.162Z,9.15
2024-04-22T18:27:18.427Z,9.12
2024-04-22T18:29:46.452Z,9.10
2024-04-22T18:32:14.631Z,9.08
2024-04-22T18:34:43.028Z,9.04
2024-04-22T18:37:11.674Z,9.01
2024-04-22T18:39:40.226Z,8.98
2024-04-22T18:42:08.491Z,8.96
2024-04-22T18:44:36.421Z,8.94
2024-04-22T18:47:05.007Z,8.89
2024-04-22T18:49:33.414Z,8.83
2024-04-22T18:52:01.295Z,8.80
2024-04-22T18:54:32.648Z,8.79
2024-04-22T18:57:03.637Z,8.75
2024-04-22T18:59:31.823Z,8.67
2024-04-22T19:02:04.022Z,8.62
2024-04-22T19:04:33.271Z,8.60
2024-04-22T19:07:01.788Z,8.57
2024-04-22T19:09:29.981Z,8.52
2024-04-22T19:11:58.501Z,8.46
2024-04-22T19:14:26.529Z,8.41
2024-04-22T19:16:54.795Z,8.34
2024-04-22T19:19:25.068Z,8.35
2024-04-22T19:21:53.723Z,8.39
2024-04-22T19:24:22.102Z,8.42
2024-04-22T19:26:50.377Z,8.41
2024-04-22T19:29:18.432Z,8.39
2024-04-22T19:31:47.356Z,8.40
2024-04-22T19:34:16.055Z,8.38
2024-04-22T19:36:44.365Z,8.34
2024-04-22T19:39:15.397Z,8.29
2024-04-22T19:41:45.182Z,8.23
2024-04-22T19:44:14.271Z,8.19
2024-04-22T19:46:42.658Z,8.18
2024-04-22T19:49:11.093Z,8.14
2024-04-22T19:51:39.298Z,8.07
2024-04-22T19:54:07.238Z,8.01
2024-04-22T19:56:35.703Z,8.02
2024-04-22T19:59:04.014Z,8.01
2024-04-22T20:01:32.288Z,8.01
2024-04-22T20:04:02.547Z,8.00
2024-04-22T20:06:31.135Z,8.00
2024-04-22T20:08:59.422Z,7.95
2024-04-22T20:11:28.377Z,7.91
2024-04-22T20:13:56.472Z,7.89
2024-04-22T20:16:45.235Z,7.86
2024-04-22T20:19:18.452Z,7.81
2024-04-22T20:21:46.870Z,7.77
2024-04-22T20:24:18.896Z,7.71
2024-04-22T20:26:47.351Z,7.62
2024-04-22T20:29:15.886Z,7.55
2024-04-22T20:31:44.771Z,7.51
2024-04-22T20:34:13.158Z,7.48
2024-04-22T20:36:41.242Z,7.48
2024-04-22T20:39:09.367Z,7.46
2024-04-22T20:41:37.726Z,7.45
2024-04-22T20:44:06.485Z,7.45
2024-04-22T20:46:35.135Z,7.42
2024-04-22T20:49:03.306Z,7.39
2024-04-22T20:51:34.262Z,7.36
2024-04-22T20:54:02.452Z,7.30
2024-04-22T20:56:30.505Z,7.25
2024-04-22T20:58:58.873Z,7.20
2024-04-22T21:01:27.235Z,7.18
2024-04-22T21:03:55.409Z,7.17
2024-04-22T21:06:23.492Z,7.14
2024-04-22T21:08:52.093Z,7.14
2024-04-22T21:11:20.030Z,7.16
2024-04-22T21:14:03.535Z,7.15
2024-04-22T21:16:31.733Z,7.17
2024-04-22T21:19:07.601Z,7.22
2024-04-22T21:21:43.020Z,7.28
2024-04-22T21:24:11.220Z,7.29
2024-04-22T21:26:39.648Z,7.33
2024-04-22T21:29:07.698Z,7.34
2024-04-22T21:31:35.916Z,7.35
2024-04-22T21:34:08.697Z,7.36
2024-04-22T21:36:37.975Z,7.36
2024-04-22T21:39:06.185Z,7.38
2024-04-22T21:41:34.436Z,7.39
2024-04-22T21:44:02.555Z,7.38
2024-04-22T21:46:30.964Z,7.36
2024-04-22T21:48:59.492Z,7.35
2024-04-22T21:51:27.759Z,7.31
2024-04-22T21:53:55.808Z,7.27
2024-04-22T21:56:23.669Z,7.25
2024-04-22T21:59:29.633Z,7.24
2024-04-22T22:02:35.173Z,7.23
2024-04-22T22:05:41.151Z,7.26
2024-04-22T22:08:10.618Z,7.23
2024-04-22T22:10:40.004Z,7.18
2024-04-22T22:13:08.382Z,7.14
2024-04-22T22:15:36.948Z,7.12
2024-04-22T22:18:06.037Z,7.11
2024-04-22T22:20:34.591Z,7.10
2024-04-22T22:23:03.093Z,7.12
2024-04-22T22:25:31.728Z,7.15
2024-04-22T22:28:00.521Z,7.16
2024-04-22T22:30:28.698Z,7.18
2024-04-22T22:32:57.637Z,7.24
2024-04-22T22:35:26.285Z,7.28
2024-04-22T22:37:54.535Z,7.30
2024-04-22T22:40:22.719Z,7.33
2024-04-22T22:42:50.960Z,7.35
2024-04-22T22:45:19.180Z,7.37
2024-04-22T22:47:47.576Z,7.38
2024-04-22T22:50:15.875Z,7.38
2024-04-22T22:52:44.212Z,7.37
2024-04-22T22:55:12.427Z,7.36
2024-04-22T22:57:41.117Z,7.36
2024-04-22T23:00:09.869Z,7.38
2024-04-22T23:02:38.283Z,7.37
2024-04-22T23:05:06.658Z,7.36
2024-04-22T23:07:34.858Z,7.32
2024-04-22T23:10:03.292Z,7.29
2024-04-22T23:12:31.472Z,7.27
2024-04-22T23:14:59.826Z,7.25
2024-04-22T23:17:28.062Z,7.23
2024-04-22T23:19:56.190Z,7.20
2024-04-22T23:22:24.223Z,7.17
2024-04-22T23:24:52.349Z,7.11
2024-04-22T23:27:20.961Z,7.11
2024-04-22T23:29:49.192Z,7.11
2024-04-22T23:32:17.748Z,7.09
2024-04-22T23:34:46.025Z,7.07
2024-04-22T23:37:14.557Z,7.03
2024-04-22T23:39:42.756Z,7.03
2024-04-22T23:42:11.150Z,7.06
2024-04-22T23:44:39.636Z,7.01
2024-04-22T23:47:07.579Z,6.94
2024-04-22T23:49:35.984Z,6.79
2024-04-22T23:52:05.852Z,6.63
2024-04-22T23:54:33.998Z,6.56
2024-04-22T23:57:03.728Z,6.58
2024-04-22T23:59:32.372Z,6.62
